| time (UTC) | temp F | wind direction | speed MPH | gust MPH | rain 1hr in | rain 24hr in | rain mn in | humidity % | barometer mb |
| 20260507164009 | 65 | 0 | 0.0 | 0.0 | 0.00 | 0.44 | 0.16 | 98 | 1004.3 |
| 20260507163510 | 65 | 0 | 0.0 | 0.0 | 0.00 | 0.44 | 0.16 | 98 | 1004.5 |
| 20260507163010 | 65 | 0 | 0.0 | 0.0 | 0.00 | 0.44 | 0.16 | 98 | 1004.5 |
| 20260507162511 | 65 | 0 | 0.0 | 0.0 | 0.00 | 0.44 | 0.16 | 99 | 1004.5 |
| 20260507162011 | 65 | 0 | 0.0 | 0.0 | 0.01 | 0.44 | 0.16 | 99 | 1004.0 |
| 20260507161517 | 65 | 0 | 0.0 | 0.0 | 0.01 | 0.44 | 0.16 | 99 | 1004.0 |
| 20260507161009 | 65 | 0 | 0.0 | 0.0 | 0.01 | 0.44 | 0.16 | 99 | 1004.0 |
| 20260507160509 | 65 | 0 | 0.0 | 0.0 | 0.01 | 0.44 | 0.16 | 99 | 1003.9 |
| 20260507160019 | 65 | 0 | 0.0 | 0.0 | 0.01 | 0.44 | 0.16 | 99 | 1003.9 |
| 20260507155509 | 65 | 0 | 0.0 | 0.0 | 0.01 | 0.44 | 0.16 | 99 | 1003.9 |
| 20260507155009 | 65 | 0 | 0.0 | 0.0 | 0.01 | 0.44 | 0.16 | 99 | 1004.0 |
| 20260507154517 | 65 | 0 | 0.0 | 0.0 | 0.02 | 0.44 | 0.16 | 99 | 1004.0 |
| 20260507154010 | 64 | 0 | 0.0 | 0.0 | 0.02 | 0.44 | 0.16 | 99 | 1004.0 |
| 20260507153514 | 64 | 0 | 0.0 | 0.0 | 0.02 | 0.44 | 0.16 | 99 | 1004.2 |
| 20260507153010 | 64 | 0 | 0.0 | 0.0 | 0.02 | 0.44 | 0.16 | 99 | 1004.2 |
| 20260507152510 | 64 | 0 | 0.0 | 0.0 | 0.02 | 0.44 | 0.16 | 99 | 1004.2 |
| 20260507152009 | 64 | 0 | 0.0 | 0.0 | 0.01 | 0.43 | 0.15 | 99 | 1004.5 |
| 20260507151511 | 64 | 0 | 0.0 | 0.0 | 0.01 | 0.43 | 0.15 | 99 | 1004.5 |
| 20260507151010 | 64 | 0 | 0.0 | 0.0 | 0.01 | 0.43 | 0.15 | 99 | 1004.5 |
| 20260507150509 | 64 | 0 | 0.0 | 0.0 | 0.01 | 0.43 | 0.15 | 99 | 1004.9 |
| 20260507150009 | 64 | 0 | 0.0 | 0.0 | 0.01 | 0.43 | 0.15 | 99 | 1004.9 |
| 20260507145515 | 64 | 0 | 0.0 | 0.0 | 0.01 | 0.43 | 0.15 | 99 | 1004.9 |
| 20260507145009 | 64 | 0 | 0.0 | 0.0 | 0.02 | 0.43 | 0.15 | 99 | 1005.5 |
| 20260507144509 | 64 | 0 | 0.0 | 0.0 | 0.01 | 0.42 | 0.14 | 99 | 1005.5 |
| 20260507144010 | 64 | 0 | 0.0 | 0.0 | 0.01 | 0.42 | 0.14 | 99 | 1005.5 |
| 20260507143510 | 64 | 0 | 0.0 | 0.0 | 0.02 | 0.42 | 0.14 | 99 | 1004.9 |
| 20260507143013 | 63 | 0 | 0.0 | 0.0 | 0.02 | 0.42 | 0.14 | 99 | 1004.9 |
| 20260507142515 | 63 | 0 | 0.0 | 0.0 | 0.02 | 0.42 | 0.14 | 99 | 1004.9 |
| 20260507142010 | 63 | 0 | 0.0 | 0.0 | 0.02 | 0.42 | 0.14 | 99 | 1004.9 |
| 20260507141009 | 63 | 0 | 0.0 | 0.0 | 0.02 | 0.42 | 0.14 | 99 | 1004.9 |
| 20260507140514 | 63 | 0 | 0.0 | 0.0 | 0.03 | 0.42 | 0.14 | 99 | 1004.8 |
| 20260507140013 | 63 | 0 | 0.0 | 0.0 | 0.03 | 0.42 | 0.14 | 99 | 1004.8 |
| 20260507135510 | 63 | 0 | 0.0 | 0.0 | 0.03 | 0.42 | 0.14 | 99 | 1004.8 |
| 20260507135014 | 63 | 0 | 0.0 | 0.0 | 0.02 | 0.41 | 0.13 | 98 | 1004.6 |
| 20260507134509 | 63 | 0 | 0.0 | 0.0 | 0.02 | 0.41 | 0.13 | 98 | 1004.6 |
| 20260507134018 | 63 | 0 | 0.0 | 0.0 | 0.03 | 0.41 | 0.13 | 98 | 1004.6 |
| 20260507133515 | 63 | 0 | 0.0 | 0.0 | 0.02 | 0.40 | 0.12 | 98 | 1004.4 |
| 20260507132251 | 63 | 0 | 0.0 | 0.0 | 0.05 | 0.40 | 0.12 | 98 | 1004.1 |
| 20260507131300 | 62 | 0 | 0.0 | 0.0 | 0.07 | 0.40 | 0.12 | 99 | 1004.1 |
| 20260507130801 | 62 | 0 | 0.0 | 0.0 | 0.06 | 0.39 | 0.11 | 98 | 1004.7 |
| 20260507130251 | 62 | 0 | 0.0 | 0.0 | 0.06 | 0.39 | 0.11 | 98 | 1004.7 |
| 20260507125758 | 62 | 0 | 0.0 | 0.0 | 0.06 | 0.39 | 0.11 | 98 | 1004.7 |
| 20260507125258 | 62 | 0 | 0.0 | 0.0 | 0.06 | 0.39 | 0.11 | 98 | 1005.5 |
| 20260507124801 | 62 | 0 | 0.0 | 0.0 | 0.06 | 0.39 | 0.11 | 98 | 1005.5 |
| 20260507124252 | 62 | 0 | 0.0 | 0.0 | 0.06 | 0.38 | 0.10 | 98 | 1005.5 |
| 20260507123757 | 62 | 0 | 0.0 | 0.0 | 0.06 | 0.38 | 0.10 | 98 | 1006.0 |
| 20260507123251 | 62 | 0 | 0.0 | 0.0 | 0.05 | 0.37 | 0.09 | 98 | 1006.0 |
| 20260507122421 | 62 | 0 | 0.0 | 0.0 | 0.04 | 0.36 | 0.08 | 98 | 1006.3 |
| 20260507121921 | 62 | 0 | 0.0 | 0.0 | 0.02 | 0.34 | 0.06 | 98 | 1006.3 |
| 20260507121425 | 63 | 0 | 0.0 | 0.0 | 0.01 | 0.33 | 0.05 | 98 | 1006.3 |
| 20260507120926 | 63 | 0 | 0.0 | 0.0 | 0.01 | 0.33 | 0.05 | 98 | 1005.5 |
| 20260507120206 | 63 | 0 | 0.0 | 0.0 | 0.01 | 0.33 | 0.05 | 98 | 1005.5 |
| 20260507115705 | 63 | 0 | 0.0 | 0.0 | 0.01 | 0.33 | 0.05 | 98 | 1005.5 |
| 20260507115206 | 63 | 0 | 0.0 | 0.0 | 0.01 | 0.33 | 0.05 | 98 | 1005.4 |
| 20260507114710 | 63 | 0 | 0.0 | 0.0 | 0.01 | 0.33 | 0.05 | 98 | 1005.4 |
| 20260507114207 | 63 | 0 | 0.0 | 0.0 | 0.01 | 0.32 | 0.04 | 98 | 1005.4 |
| 20260507113706 | 63 | 0 | 0.0 | 0.0 | 0.01 | 0.32 | 0.04 | 98 | 1005.4 |
| 20260507113208 | 63 | 0 | 0.0 | 0.0 | 0.01 | 0.32 | 0.04 | 98 | 1005.4 |
| 20260507112710 | 63 | 0 | 0.0 | 0.0 | 0.01 | 0.32 | 0.04 | 98 | 1005.4 |
| 20260507112209 | 63 | 0 | 0.0 | 0.0 | 0.01 | 0.32 | 0.04 | 98 | 1005.5 |
| 20260507111709 | 63 | 0 | 0.0 | 0.0 | 0.01 | 0.32 | 0.04 | 98 | 1005.5 |
| 20260507111206 | 63 | 0 | 0.0 | 0.0 | 0.01 | 0.32 | 0.04 | 98 | 1005.5 |
| 20260507110710 | 62 | 0 | 0.0 | 0.0 | 0.01 | 0.32 | 0.04 | 98 | 1004.9 |
| 20260507110206 | 62 | 0 | 0.0 | 0.0 | 0.01 | 0.32 | 0.04 | 98 | 1004.9 |
| 20260507105706 | 63 | 0 | 0.0 | 0.0 | 0.01 | 0.32 | 0.04 | 98 | 1004.9 |
| 20260507105212 | 63 | 0 | 0.0 | 0.0 | 0.01 | 0.32 | 0.04 | 98 | 1004.6 |
| 20260507104716 | 62 | 0 | 0.0 | 0.0 | 0.01 | 0.32 | 0.04 | 98 | 1004.6 |
| 20260507104206 | 62 | 0 | 0.0 | 0.0 | 0.00 | 0.31 | 0.03 | 98 | 1004.6 |
| 20260507103206 | 62 | 0 | 0.0 | 0.0 | 0.00 | 0.31 | 0.03 | 98 | 1005.0 |
| 20260507102706 | 62 | 0 | 0.0 | 0.0 | 0.00 | 0.31 | 0.03 | 98 | 1005.0 |
| 20260507102205 | 62 | 0 | 0.0 | 0.0 | 0.00 | 0.31 | 0.03 | 98 | 1004.9 |
| 20260507101708 | 63 | 0 | 0.0 | 0.0 | 0.00 | 0.31 | 0.03 | 98 | 1004.9 |
| 20260507101206 | 62 | 0 | 0.0 | 0.0 | 0.01 | 0.31 | 0.03 | 98 | 1004.9 |
| 20260507100707 | 62 | 0 | 0.0 | 0.0 | 0.01 | 0.31 | 0.03 | 98 | 1004.9 |
| 20260507100210 | 62 | 0 | 0.0 | 0.0 | 0.01 | 0.31 | 0.03 | 98 | 1004.9 |
| 20260507095706 | 62 | 0 | 0.0 | 0.0 | 0.01 | 0.31 | 0.03 | 98 | 1004.9 |
| 20260507095206 | 62 | 0 | 0.0 | 0.0 | 0.01 | 0.31 | 0.03 | 98 | 1005.1 |
| 20260507094705 | 62 | 0 | 0.0 | 0.0 | 0.01 | 0.31 | 0.03 | 98 | 1005.1 |
| 20260507094206 | 62 | 0 | 0.0 | 0.0 | 0.01 | 0.31 | 0.03 | 98 | 1005.1 |
| 20260507093706 | 62 | 0 | 0.0 | 0.0 | 0.01 | 0.31 | 0.03 | 98 | 1005.0 |
| 20260507093205 | 62 | 0 | 0.0 | 0.0 | 0.01 | 0.31 | 0.03 | 98 | 1005.0 |
| 20260507092706 | 62 | 0 | 0.0 | 0.0 | 0.01 | 0.31 | 0.03 | 98 | 1005.0 |
| 20260507092206 | 62 | 0 | 0.0 | 0.0 | 0.01 | 0.31 | 0.03 | 98 | 1005.5 |
| 20260507091705 | 62 | 0 | 0.0 | 0.0 | 0.01 | 0.31 | 0.03 | 98 | 1005.5 |
| 20260507091206 | 62 | 0 | 0.0 | 0.0 | 0.00 | 0.30 | 0.02 | 98 | 1005.5 |
| 20260507090706 | 62 | 0 | 0.0 | 0.0 | 0.00 | 0.30 | 0.02 | 98 | 1005.1 |
| 20260507090205 | 62 | 0 | 0.0 | 0.0 | 0.00 | 0.30 | 0.02 | 98 | 1005.1 |
| 20260507085708 | 62 | 0 | 0.0 | 0.0 | 0.00 | 0.30 | 0.02 | 98 | 1005.1 |
| 20260507085206 | 62 | 0 | 0.0 | 0.0 | 0.00 | 0.30 | 0.02 | 98 | 1005.0 |
| 20260507084705 | 62 | 0 | 0.0 | 0.0 | 0.00 | 0.30 | 0.02 | 98 | 1005.0 |
| 20260507084206 | 62 | 0 | 0.0 | 0.0 | 0.00 | 0.30 | 0.02 | 98 | 1005.0 |
| 20260507083706 | 62 | 0 | 0.0 | 0.0 | 0.00 | 0.30 | 0.02 | 98 | 1004.8 |
| 20260507083205 | 62 | 0 | 0.0 | 0.0 | 0.00 | 0.30 | 0.02 | 98 | 1004.8 |
| 20260507082705 | 62 | 0 | 0.0 | 0.0 | 0.00 | 0.30 | 0.02 | 98 | 1004.8 |
| 20260507082206 | 62 | 0 | 0.0 | 0.0 | 0.00 | 0.30 | 0.02 | 98 | 1004.2 |
| 20260507081706 | 62 | 0 | 0.0 | 0.0 | 0.00 | 0.30 | 0.02 | 98 | 1004.2 |
| 20260507081206 | 62 | 0 | 0.0 | 0.0 | 0.00 | 0.30 | 0.02 | 98 | 1004.2 |
| 20260507080706 | 62 | 0 | 0.0 | 0.0 | 0.00 | 0.30 | 0.02 | 98 | 1004.9 |
| 20260507080206 | 62 | 0 | 0.0 | 0.0 | 0.00 | 0.30 | 0.02 | 98 | 1004.9 |
| 20260507075707 | 62 | 0 | 0.0 | 0.0 | 0.00 | 0.30 | 0.02 | 98 | 1004.9 |
| 20260507075209 | 62 | 0 | 0.0 | 0.0 | 0.00 | 0.30 | 0.02 | 98 | 1005.5 |
| 20260507074706 | 62 | 0 | 0.0 | 0.0 | 0.00 | 0.30 | 0.02 | 98 | 1005.5 |
| 20260507074205 | 62 | 0 | 0.0 | 0.0 | 0.00 | 0.30 | 0.02 | 98 | 1005.5 |
| 20260507073706 | 62 | 0 | 0.0 | 0.0 | 0.00 | 0.30 | 0.02 | 98 | 1005.2 |
| 20260507073137 | 62 | 0 | 0.0 | 0.0 | 0.00 | 0.30 | 0.02 | 98 | 1005.2 |
| 20260507072640 | 62 | 0 | 0.0 | 0.0 | 0.00 | 0.30 | 0.02 | 98 | 1005.2 |
| 20260507072140 | 62 | 0 | 0.0 | 0.0 | 0.00 | 0.30 | 0.02 | 98 | 1006.0 |
| 20260507071642 | 63 | 0 | 0.0 | 0.0 | 0.00 | 0.30 | 0.02 | 98 | 1006.0 |
| 20260507071140 | 63 | 0 | 0.0 | 0.0 | 0.01 | 0.30 | 0.02 | 98 | 1006.0 |
| 20260507070639 | 63 | 0 | 0.0 | 0.0 | 0.01 | 0.30 | 0.02 | 98 | 1006.0 |
| 20260507070138 | 62 | 0 | 0.0 | 0.0 | 0.01 | 0.30 | 0.02 | 98 | 1006.0 |
| 20260507065639 | 63 | 0 | 0.0 | 0.0 | 0.02 | 0.30 | 0.02 | 98 | 1006.0 |
| 20260507065138 | 62 | 0 | 0.0 | 0.0 | 0.02 | 0.30 | 0.02 | 98 | 1006.5 |
| 20260507064644 | 63 | 0 | 0.0 | 0.0 | 0.02 | 0.30 | 0.02 | 98 | 1006.5 |
| 20260507064137 | 63 | 0 | 0.0 | 0.0 | 0.02 | 0.30 | 0.02 | 98 | 1006.5 |
| 20260507063641 | 62 | 0 | 0.0 | 0.0 | 0.02 | 0.30 | 0.02 | 98 | 1006.5 |
| 20260507063148 | 62 | 0 | 0.0 | 0.0 | 0.02 | 0.30 | 0.02 | 98 | 1006.5 |
| 20260507062641 | 62 | 0 | 0.0 | 0.0 | 0.02 | 0.30 | 0.02 | 97 | 1006.5 |
| 20260507062144 | 62 | 0 | 0.0 | 0.0 | 0.02 | 0.30 | 0.02 | 97 | 1006.6 |
| 20260507061637 | 63 | 0 | 0.0 | 0.0 | 0.02 | 0.30 | 0.02 | 97 | 1006.6 |
| 20260507061137 | 63 | 0 | 0.0 | 0.0 | 0.01 | 0.29 | 0.01 | 97 | 1006.6 |
| 20260507060637 | 63 | 0 | 0.0 | 0.0 | 0.01 | 0.29 | 0.01 | 97 | 1006.7 |
| 20260507060137 | 63 | 0 | 0.0 | 0.0 | 0.01 | 0.29 | 0.01 | 97 | 1006.7 |
| 20260507055639 | 63 | 0 | 0.0 | 0.0 | 0.00 | 0.28 | 0.00 | 97 | 1006.7 |
| 20260507055139 | 63 | 0 | 0.0 | 0.0 | 0.00 | 0.28 | 0.00 | 97 | 1007.4 |
| 20260507054642 | 63 | 0 | 0.0 | 0.0 | 0.00 | 0.28 | 0.00 | 97 | 1007.4 |
| 20260507054139 | 63 | 0 | 0.0 | 0.0 | 0.00 | 0.28 | 0.00 | 97 | 1007.4 |
| 20260507053642 | 63 | 0 | 0.0 | 0.0 | 0.00 | 0.28 | 0.00 | 97 | 1007.4 |
| 20260507053137 | 63 | 0 | 0.0 | 0.0 | 0.00 | 0.28 | 0.00 | 97 | 1007.4 |
| 20260507052336 | 63 | 0 | 0.0 | 0.0 | 0.00 | 0.28 | 0.00 | 97 | 1007.6 |
| 20260507051842 | 63 | 0 | 0.0 | 0.0 | 0.01 | 0.28 | 0.00 | 97 | 1007.6 |
| 20260507051337 | 63 | 0 | 0.0 | 0.0 | 0.01 | 0.28 | 0.00 | 97 | 1007.6 |
| 20260507050837 | 63 | 0 | 0.0 | 0.0 | 0.01 | 0.28 | 0.28 | 97 | 1007.7 |
| 20260507050337 | 63 | 0 | 0.0 | 0.0 | 0.01 | 0.28 | 0.28 | 97 | 1007.7 |
| 20260507045836 | 63 | 0 | 0.0 | 0.0 | 0.01 | 0.28 | 0.28 | 97 | 1007.7 |
| 20260507045336 | 63 | 0 | 0.0 | 0.0 | 0.01 | 0.28 | 0.28 | 97 | 1007.5 |
| 20260507044908 | 63 | 0 | 0.0 | 0.0 | 0.01 | 0.28 | 0.28 | 97 | 1007.5 |
| 20260507044837 | 63 | 0 | 0.0 | 0.0 | 0.01 | 0.28 | 0.28 | 97 | 1007.5 |
| 20260507044410 | 63 | 0 | 0.0 | 0.0 | 0.01 | 0.28 | 0.28 | 97 | 1007.5 |
| 20260507044337 | 63 | 0 | 0.0 | 0.0 | 0.01 | 0.28 | 0.28 | 97 | 1007.5 |
| 20260507043836 | 63 | 0 | 0.0 | 0.0 | 0.01 | 0.28 | 0.28 | 97 | 1007.0 |
| 20260507043337 | 63 | 0 | 0.0 | 0.0 | 0.01 | 0.28 | 0.28 | 97 | 1007.0 |
| 20260507042837 | 63 | 0 | 0.0 | 0.0 | 0.01 | 0.28 | 0.28 | 97 | 1007.0 |
| 20260507042336 | 63 | 0 | 0.0 | 0.0 | 0.01 | 0.28 | 0.28 | 97 | 1007.7 |
| 20260507041837 | 63 | 0 | 0.0 | 0.0 | 0.01 | 0.27 | 0.27 | 97 | 1007.7 |
| 20260507041337 | 63 | 0 | 0.0 | 0.0 | 0.01 | 0.27 | 0.27 | 96 | 1007.7 |
| 20260507040837 | 63 | 0 | 0.0 | 0.0 | 0.03 | 0.27 | 0.27 | 96 | 1007.7 |
| 20260507040337 | 63 | 0 | 0.0 | 0.0 | 0.04 | 0.27 | 0.27 | 96 | 1007.7 |
| 20260507035828 | 63 | 0 | 0.0 | 0.0 | 0.05 | 0.27 | 0.27 | 96 | 1007.7 |
| 20260507035318 | 63 | 0 | 0.0 | 0.0 | 0.06 | 0.27 | 0.27 | 96 | 1006.5 |
| 20260507034812 | 63 | 0 | 0.0 | 0.0 | 0.06 | 0.27 | 0.27 | 96 | 1006.5 |
| 20260507034310 | 63 | 0 | 0.0 | 0.0 | 0.07 | 0.27 | 0.27 | 96 | 1006.5 |
| 20260507033810 | 63 | 0 | 0.0 | 0.0 | 0.08 | 0.27 | 0.27 | 96 | 1005.6 |
| 20260507033310 | 63 | 0 | 0.0 | 0.0 | 0.09 | 0.27 | 0.27 | 96 | 1005.6 |
| 20260507032827 | 63 | 0 | 0.0 | 0.0 | 0.11 | 0.27 | 0.27 | 96 | 1005.6 |
| 20260507032309 | 63 | 0 | 0.0 | 0.0 | 0.12 | 0.27 | 0.27 | 95 | 1008.1 |
| 20260507031816 | 63 | 0 | 0.0 | 0.0 | 0.12 | 0.26 | 0.26 | 95 | 1008.1 |
| 20260507031313 | 63 | 0 | 0.0 | 0.0 | 0.12 | 0.26 | 0.26 | 95 | 1008.1 |
| 20260507030810 | 63 | 0 | 0.0 | 0.0 | 0.11 | 0.24 | 0.24 | 95 | 1009.1 |
| 20260507030311 | 63 | 0 | 0.0 | 0.0 | 0.12 | 0.23 | 0.23 | 95 | 1009.1 |
| 20260507025829 | 63 | 0 | 0.0 | 0.0 | 0.12 | 0.22 | 0.22 | 95 | 1009.1 |
| 20260507025310 | 63 | 0 | 0.0 | 0.0 | 0.12 | 0.21 | 0.21 | 95 | 1008.1 |
| 20260507024813 | 63 | 0 | 0.0 | 0.0 | 0.13 | 0.21 | 0.21 | 95 | 1008.1 |
| 20260507024311 | 63 | 0 | 0.0 | 0.0 | 0.12 | 0.20 | 0.20 | 94 | 1008.1 |
| 20260507023810 | 64 | 0 | 0.0 | 0.0 | 0.12 | 0.19 | 0.19 | 95 | 1008.5 |
| 20260507023312 | 64 | 0 | 0.0 | 0.0 | 0.11 | 0.18 | 0.18 | 94 | 1008.5 |
| 20260507022830 | 64 | 0 | 0.0 | 0.0 | 0.09 | 0.16 | 0.16 | 94 | 1008.5 |
| 20260507022311 | 64 | 0 | 0.0 | 0.0 | 0.08 | 0.15 | 0.15 | 94 | 1008.0 |
| 20260507021810 | 64 | 0 | 0.0 | 0.0 | 0.08 | 0.14 | 0.14 | 94 | 1008.0 |
| 20260507021310 | 64 | 0 | 0.0 | 1.0 | 0.08 | 0.14 | 0.14 | 94 | 1008.0 |
| 20260507020810 | 64 | 0 | 0.0 | 1.0 | 0.08 | 0.13 | 0.13 | 93 | 1008.1 |
| 20260507020310 | 65 | 0 | 0.0 | 1.0 | 0.06 | 0.11 | 0.11 | 93 | 1008.1 |
| 20260507015826 | 65 | 0 | 0.0 | 1.0 | 0.05 | 0.10 | 0.10 | 93 | 1008.1 |
| 20260507015316 | 65 | 0 | 0.0 | 0.0 | 0.04 | 0.09 | 0.09 | 93 | 1007.5 |
| 20260507014814 | 65 | 0 | 0.0 | 0.0 | 0.03 | 0.08 | 0.08 | 92 | 1007.5 |
| 20260507014309 | 65 | 0 | 0.0 | 0.0 | 0.03 | 0.08 | 0.08 | 92 | 1007.5 |
| 20260507013810 | 66 | 0 | 0.0 | 0.0 | 0.02 | 0.07 | 0.07 | 92 | 1007.3 |
| 20260507013310 | 66 | 0 | 0.0 | 0.0 | 0.02 | 0.07 | 0.07 | 92 | 1007.3 |
| 20260507012809 | 66 | 0 | 0.0 | 0.0 | 0.02 | 0.07 | 0.07 | 92 | 1007.3 |
| 20260507012310 | 67 | 0 | 0.0 | 0.0 | 0.02 | 0.07 | 0.07 | 92 | 1006.9 |
| 20260507011820 | 67 | 0 | 0.0 | 1.0 | 0.01 | 0.06 | 0.06 | 92 | 1006.9 |
| 20260507011309 | 67 | 0 | 0.0 | 1.0 | 0.01 | 0.06 | 0.06 | 92 | 1006.9 |
| 20260507010810 | 67 | 0 | 0.0 | 0.0 | 0.00 | 0.05 | 0.05 | 91 | 1007.1 |
| 20260507010310 | 68 | 0 | 0.0 | 0.0 | 0.00 | 0.05 | 0.05 | 91 | 1007.1 |
| 20260507005809 | 68 | 0 | 0.0 | 1.0 | 0.00 | 0.05 | 0.05 | 91 | 1007.1 |
| 20260507005310 | 68 | 0 | 0.0 | 1.0 | 0.00 | 0.05 | 0.05 | 91 | 1007.2 |
| 20260507004811 | 68 | 0 | 0.0 | 0.0 | 0.00 | 0.05 | 0.05 | 91 | 1007.2 |
| 20260507004317 | 68 | 0 | 0.0 | 0.0 | 0.00 | 0.05 | 0.05 | 91 | 1007.2 |
| 20260507003810 | 68 | 0 | 0.0 | 0.0 | 0.00 | 0.05 | 0.05 | 91 | 1007.2 |
| 20260507003112 | 69 | 0 | 0.0 | 0.0 | 0.00 | 0.05 | 0.05 | 91 | 1007.2 |
| 20260507002425 | 69 | 0 | 0.0 | 2.0 | 0.00 | 0.05 | 0.05 | 91 | 1006.9 |
| 20260507001926 | 69 | 0 | 0.0 | 2.0 | 0.00 | 0.05 | 0.05 | 91 | 1006.9 |
| 20260507001422 | 69 | 0 | 0.0 | 0.0 | 0.00 | 0.05 | 0.05 | 91 | 1006.9 |
| 20260507000900 | 69 | 0 | 0.0 | 0.0 | 0.00 | 0.05 | 0.05 | 90 | 1006.9 |
| 20260507000401 | 69 | 0 | 0.0 | 0.0 | 0.00 | 0.05 | 0.05 | 90 | 1006.9 |
| 20260506235859 | 69 | 0 | 0.0 | 0.0 | 0.00 | 0.05 | 0.05 | 90 | 1006.9 |
| 20260506235359 | 69 | 0 | 0.0 | 0.0 | 0.00 | 0.05 | 0.05 | 89 | 1006.9 |
| 20260506234859 | 69 | 0 | 0.0 | 0.0 | 0.00 | 0.05 | 0.05 | 88 | 1006.9 |
| 20260506234359 | 70 | 0 | 0.0 | 0.0 | 0.00 | 0.05 | 0.05 | 88 | 1006.9 |
| 20260506233902 | 70 | 0 | 0.0 | 0.0 | 0.00 | 0.05 | 0.05 | 87 | 1006.8 |
| 20260506233358 | 70 | 0 | 0.0 | 0.0 | 0.00 | 0.05 | 0.05 | 87 | 1006.8 |
| 20260506232902 | 70 | 0 | 0.0 | 0.0 | 0.00 | 0.05 | 0.05 | 86 | 1006.8 |
| 20260506232107 | 70 | 0 | 0.0 | 0.0 | 0.00 | 0.05 | 0.05 | 86 | 1006.9 |
| 20260506231607 | 70 | 0 | 0.0 | 0.0 | 0.00 | 0.05 | 0.05 | 85 | 1006.9 |
| 20260506231107 | 70 | 0 | 0.0 | 0.0 | 0.00 | 0.05 | 0.05 | 86 | 1006.9 |
| 20260506230607 | 70 | 0 | 0.0 | 0.0 | 0.00 | 0.05 | 0.05 | 85 | 1006.9 |
| 20260506230104 | 70 | 0 | 0.0 | 0.0 | 0.00 | 0.05 | 0.05 | 86 | 1006.9 |
| 20260506225607 | 70 | 0 | 0.0 | 0.0 | 0.00 | 0.05 | 0.05 | 85 | 1006.9 |
| 20260506225112 | 70 | 0 | 0.0 | 0.0 | 0.00 | 0.05 | 0.05 | 84 | 1007.4 |
| 20260506224606 | 71 | 0 | 0.0 | 0.0 | 0.00 | 0.05 | 0.05 | 84 | 1007.4 |
| 20260506224107 | 71 | 0 | 0.0 | 0.0 | 0.00 | 0.05 | 0.05 | 84 | 1007.4 |
| 20260506223213 | 71 | 0 | 0.0 | 0.0 | 0.00 | 0.05 | 0.05 | 84 | 1007.0 |
| 20260506222709 | 71 | 0 | 0.0 | 0.0 | 0.00 | 0.05 | 0.05 | 84 | 1007.0 |
| 20260506222210 | 71 | 0 | 0.0 | 0.0 | 0.00 | 0.05 | 0.05 | 84 | 1007.4 |
| 20260506221710 | 71 | 0 | 0.0 | 0.0 | 0.00 | 0.05 | 0.05 | 84 | 1007.4 |
| 20260506221212 | 71 | 0 | 0.0 | 0.0 | 0.00 | 0.05 | 0.05 | 84 | 1007.4 |
| 20260506220711 | 71 | 0 | 0.0 | 0.0 | 0.00 | 0.05 | 0.05 | 84 | 1007.4 |
| 20260506220209 | 71 | 0 | 0.0 | 0.0 | 0.00 | 0.05 | 0.05 | 85 | 1007.4 |
| 20260506215355 | 71 | 0 | 0.0 | 0.0 | 0.00 | 0.05 | 0.05 | 83 | 1007.0 |
| 20260506214852 | 71 | 0 | 0.0 | 0.0 | 0.00 | 0.05 | 0.05 | 82 | 1007.0 |
| 20260506214353 | 71 | 0 | 0.0 | 2.0 | 0.00 | 0.05 | 0.05 | 83 | 1007.0 |
| 20260506213854 | 71 | 0 | 0.0 | 2.0 | 0.00 | 0.05 | 0.05 | 83 | 1006.9 |
| 20260506213330 | 71 | 0 | 0.0 | 0.0 | 0.00 | 0.05 | 0.05 | 83 | 1006.9 |
| 20260506212830 | 71 | 0 | 0.0 | 0.0 | 0.00 | 0.05 | 0.05 | 82 | 1006.9 |
| 20260506212331 | 71 | 0 | 0.0 | 0.0 | 0.00 | 0.05 | 0.05 | 82 | 1006.6 |
| 20260506211429 | 70 | 0 | 0.0 | 0.0 | 0.00 | 0.05 | 0.05 | 82 | 1006.6 |
| 20260506210929 | 70 | 0 | 0.0 | 0.0 | 0.00 | 0.05 | 0.05 | 83 | 1006.8 |
| 20260506210430 | 70 | 0 | 0.0 | 0.0 | 0.00 | 0.05 | 0.05 | 83 | 1006.8 |
| 20260506205929 | 70 | 0 | 0.0 | 0.0 | 0.00 | 0.05 | 0.05 | 82 | 1006.8 |
| 20260506205512 | 70 | 0 | 0.0 | 0.0 | 0.00 | 0.05 | 0.05 | 82 | 1007.3 |
| 20260506205429 | 70 | 0 | 0.0 | 0.0 | 0.00 | 0.05 | 0.05 | 82 | 1007.3 |
| 20260506204930 | 70 | 0 | 0.0 | 0.0 | 0.00 | 0.05 | 0.05 | 83 | 1007.3 |
| 20260506204429 | 70 | 0 | 0.0 | 0.0 | 0.00 | 0.05 | 0.05 | 82 | 1007.3 |
| 20260506203929 | 70 | 0 | 0.0 | 0.0 | 0.00 | 0.05 | 0.05 | 82 | 1007.3 |
| 20260506203430 | 70 | 0 | 0.0 | 1.0 | 0.00 | 0.05 | 0.05 | 83 | 1007.3 |
| 20260506202929 | 70 | 0 | 0.0 | 1.0 | 0.00 | 0.05 | 0.05 | 84 | 1007.3 |
| 20260506202429 | 70 | 0 | 0.0 | 1.0 | 0.00 | 0.05 | 0.05 | 83 | 1007.4 |
| 20260506201929 | 70 | 0 | 0.0 | 1.0 | 0.00 | 0.05 | 0.05 | 85 | 1007.4 |
| 20260506201431 | 70 | 0 | 0.0 | 1.0 | 0.00 | 0.05 | 0.05 | 84 | 1007.4 |
| 20260506200929 | 70 | 0 | 0.0 | 1.0 | 0.00 | 0.05 | 0.05 | 85 | 1007.4 |
| 20260506200429 | 70 | 0 | 0.0 | 1.0 | 0.00 | 0.05 | 0.05 | 83 | 1007.4 |
| 20260506195929 | 70 | 0 | 0.0 | 1.0 | 0.00 | 0.05 | 0.05 | 84 | 1007.4 |
| 20260506195430 | 69 | 0 | 0.0 | 0.0 | 0.00 | 0.05 | 0.05 | 85 | 1007.0 |
| 20260506194932 | 69 | 0 | 0.0 | 0.0 | 0.00 | 0.05 | 0.05 | 87 | 1007.0 |
| 20260506194429 | 68 | 0 | 0.0 | 0.0 | 0.00 | 0.05 | 0.05 | 85 | 1007.0 |
| 20260506193932 | 68 | 0 | 0.0 | 2.0 | 0.00 | 0.05 | 0.05 | 85 | 1007.5 |
| 20260506193429 | 68 | 0 | 0.0 | 2.0 | 0.00 | 0.05 | 0.05 | 87 | 1007.5 |
| 20260506192929 | 67 | 0 | 0.0 | 0.0 | 0.00 | 0.05 | 0.05 | 88 | 1007.5 |
| 20260506192430 | 67 | 0 | 0.0 | 0.0 | 0.00 | 0.05 | 0.05 | 88 | 1007.4 |
| 20260506191929 | 67 | 0 | 0.0 | 0.0 | 0.00 | 0.05 | 0.05 | 89 | 1007.4 |
| 20260506191429 | 66 | 0 | 0.0 | 0.0 | 0.00 | 0.05 | 0.05 | 89 | 1007.4 |
| 20260506190930 | 66 | 0 | 0.0 | 0.0 | 0.00 | 0.05 | 0.05 | 90 | 1007.5 |
| 20260506190244 | 66 | 0 | 0.0 | 0.0 | 0.00 | 0.05 | 0.05 | 90 | 1007.5 |
| 20260506185731 | 66 | 0 | 0.0 | 1.0 | 0.00 | 0.05 | 0.05 | 91 | 1007.5 |
| 20260506185231 | 65 | 0 | 0.0 | 1.0 | 0.00 | 0.05 | 0.05 | 92 | 1007.5 |
| 20260506184731 | 65 | 0 | 0.0 | 0.0 | 0.00 | 0.05 | 0.05 | 91 | 1007.5 |
| 20260506184231 | 65 | 0 | 0.0 | 0.0 | 0.01 | 0.05 | 0.05 | 92 | 1007.5 |
| 20260506183730 | 65 | 0 | 0.0 | 0.0 | 0.01 | 0.05 | 0.05 | 92 | 1007.5 |
| 20260506183239 | 65 | 0 | 0.0 | 1.0 | 0.01 | 0.05 | 0.05 | 91 | 1007.5 |
| 20260506182731 | 65 | 0 | 0.0 | 1.0 | 0.01 | 0.05 | 0.05 | 91 | 1007.5 |
| 20260506182230 | 65 | 0 | 0.0 | 0.0 | 0.01 | 0.05 | 0.05 | 91 | 1007.3 |
| 20260506181736 | 64 | 0 | 0.0 | 0.0 | 0.02 | 0.05 | 0.05 | 92 | 1007.3 |
| 20260506181009 | 64 | 0 | 0.0 | 0.0 | 0.03 | 0.05 | 0.05 | 92 | 1007.3 |
| 20260506180509 | 64 | 0 | 0.0 | 0.0 | 0.04 | 0.05 | 0.05 | 92 | 1007.6 |
| 20260506180008 | 64 | 0 | 0.0 | 0.0 | 0.05 | 0.05 | 0.05 | 93 | 1007.6 |
| 20260506175508 | 64 | 0 | 0.0 | 0.0 | 0.05 | 0.05 | 0.05 | 93 | 1007.6 |
| 20260506175009 | 64 | 0 | 0.0 | 0.0 | 0.05 | 0.05 | 0.05 | 92 | 1009.0 |
| 20260506174515 | 63 | 0 | 0.0 | 0.0 | 0.04 | 0.04 | 0.04 | 91 | 1009.0 |
| 20260506174015 | 63 | 0 | 0.0 | 0.0 | 0.04 | 0.04 | 0.04 | 91 | 1009.0 |
| 20260506173510 | 64 | 0 | 0.0 | 0.0 | 0.04 | 0.04 | 0.04 | 91 | 1009.0 |
| 20260506173013 | 64 | 0 | 0.0 | 0.0 | 0.04 | 0.04 | 0.04 | 90 | 1009.0 |
| 20260506172511 | 64 | 0 | 0.0 | 1.0 | 0.04 | 0.04 | 0.04 | 88 | 1009.0 |
| 20260506172012 | 65 | 0 | 0.0 | 1.0 | 0.03 | 0.03 | 0.03 | 86 | 1009.4 |
| 20260506171511 | 66 | 0 | 0.0 | 0.0 | 0.03 | 0.03 | 0.03 | 85 | 1009.4 |
| 20260506171012 | 66 | 0 | 0.0 | 0.0 | 0.02 | 0.02 | 0.02 | 83 | 1009.4 |
| 20260506170515 | 67 | 0 | 0.0 | 0.0 | 0.01 | 0.01 | 0.01 | 80 | 1009.5 |
| 20260506170010 | 68 | 0 | 0.0 | 0.0 | 0.00 | 0.00 | 0.00 | 78 | 1009.5 |
| 20260506165510 | 68 | 0 | 0.0 | 0.0 | 0.00 | 0.00 | 0.00 | 76 | 1009.5 |
| 20260506165011 | 68 | 0 | 0.0 | 0.0 | 0.00 | 0.00 | 0.00 | 76 | 1009.2 |
| 20260506164510 | 69 | 0 | 0.0 | 0.0 | 0.00 | 0.00 | 0.00 | 75 | 1009.2 |